»·PEaware :: N231DG KSNA-KCMA

N231DG :: KSNA-KCMA

FLIGHT INFORMATION

Flight Status: Arrived
Operator: Privately registered:
United States
More flights under this callsign
Pilot: Chip D. (15091)
Aircraft: CESSNA 172 SKYHAWK
(C172)
More flights by this aircraft type
Origin: KSNA John Wayne-Orange Co
United States
Destination: KCMA Camarillo
United States
More flights between these airports :: More routes between these airports
Route: +SLI V23 POPPR SMO125R SMO VNY
File this flight plan on PilotEdge
Remarks: TEC ROUTE CSTP24
Altitude:
(Current/Filed)
4,000ft
Speed:
(Current/Filed)
135kts
Departed: 14-Feb-20 02:12 PM
Arrived: 14-Feb-20 02:52 PM
Distance/Time
Traveled:
69nm/0:40
Distance/Time
To Go:
Arrived

Flight Plot

Page will automatically refresh every two minutes.


Map Options




Map Legend


Flown Route
Filed Route
Departure Airport
Arrival Airport
Navaid (VOR, NDB)
Fix

Horizontal Profiles

Position Reports

Time Latitude Longitude Heading Altitude Ground
Speed
14-Feb-20 13:46 33.666521 -117.873130 248 60ft 0kts
14-Feb-20 13:47 33.666521 -117.873130 248 60ft 0kts
14-Feb-20 13:48 33.666521 -117.873130 248 60ft 0kts
14-Feb-20 13:49 33.666521 -117.873130 248 60ft 0kts
14-Feb-20 13:50 33.666521 -117.873130 248 60ft 0kts
14-Feb-20 13:51 33.666521 -117.873130 248 60ft 0kts
14-Feb-20 13:52 33.666521 -117.873130 248 60ft 0kts
14-Feb-20 13:53 33.666521 -117.873130 248 60ft 0kts
14-Feb-20 13:54 33.666521 -117.873130 248 60ft 0kts
14-Feb-20 13:55 33.666521 -117.873130 248 60ft 0kts
14-Feb-20 13:56 33.666521 -117.873130 248 60ft 0kts
14-Feb-20 13:57 33.666521 -117.873130 248 60ft 0kts
14-Feb-20 13:58 33.666521 -117.873130 248 60ft 0kts
14-Feb-20 13:59 33.666521 -117.873130 248 60ft 0kts
14-Feb-20 14:00 33.666521 -117.873130 248 60ft 0kts
14-Feb-20 14:01 33.666521 -117.873130 248 60ft 0kts
14-Feb-20 14:02 33.666521 -117.873130 248 60ft 0kts
14-Feb-20 14:03 33.667137 -117.872916 33 60ft 9kts
14-Feb-20 14:04 33.670156 -117.869832 38 60ft 17kts
14-Feb-20 14:05 33.673827 -117.867181 347 60ft 11kts
14-Feb-20 14:06 33.679115 -117.863907 29 60ft 24kts
14-Feb-20 14:07 33.679966 -117.863646 298 60ft 0kts
14-Feb-20 14:08 33.679966 -117.863646 298 60ft 0kts
14-Feb-20 14:09 33.679966 -117.863646 298 60ft 0kts
14-Feb-20 14:10 33.680070 -117.863889 293 60ft 5kts
14-Feb-20 14:11 33.667112 -117.873518 231 576ft 86kts
14-Feb-20 14:12 33.652923 -117.901682 240 1232ft 117kts
14-Feb-20 14:13 33.644032 -117.941722 268 1409ft 121kts
14-Feb-20 14:14 33.643314 -117.979621 268 2101ft 109kts
14-Feb-20 14:15 33.648268 -118.014162 300 2795ft 107kts
14-Feb-20 14:16 33.664450 -118.043949 300 3493ft 106kts
14-Feb-20 14:17 33.680972 -118.073805 300 4019ft 117kts
14-Feb-20 14:18 33.702611 -118.106726 322 4019ft 132kts
14-Feb-20 14:19 33.732973 -118.131987 314 4020ft 132kts
14-Feb-20 14:20 33.758407 -118.163779 305 4021ft 131kts
14-Feb-20 14:21 33.777616 -118.200874 298 4022ft 130kts
14-Feb-20 14:22 33.797184 -118.237596 305 4023ft 130kts
14-Feb-20 14:23 33.822775 -118.268531 317 4025ft 131kts
14-Feb-20 14:24 33.847999 -118.299794 312 4026ft 130kts
14-Feb-20 14:25 33.875512 -118.328233 314 4027ft 130kts
14-Feb-20 14:26 33.902486 -118.357347 317 4026ft 127kts
14-Feb-20 14:27 33.929310 -118.384703 317 3999ft 126kts
14-Feb-20 14:28 33.955928 -118.411538 318 3998ft 124kts
14-Feb-20 14:29 33.983033 -118.437349 320 3999ft 124kts
14-Feb-20 14:30 34.008550 -118.465202 310 4000ft 124kts
14-Feb-20 14:31 34.030893 -118.496893 310 4002ft 124kts
14-Feb-20 14:32 34.053243 -118.528957 310 4004ft 125kts
14-Feb-20 14:33 34.075612 -118.561245 310 4008ft 126kts
14-Feb-20 14:34 34.098134 -118.593817 310 4004ft 126kts
14-Feb-20 14:35 34.121031 -118.626129 320 3998ft 126kts
14-Feb-20 14:36 34.148795 -118.651621 322 3995ft 126kts
14-Feb-20 14:37 34.176619 -118.677655 322 3992ft 126kts
14-Feb-20 14:38 34.204287 -118.703600 322 4025ft 125kts
14-Feb-20 14:39 34.223497 -118.736911 281 4026ft 127kts
14-Feb-20 14:40 34.227730 -118.775853 276 4025ft 108kts
14-Feb-20 14:41 34.229624 -118.811220 267 4027ft 104kts
14-Feb-20 14:42 34.227544 -118.847388 266 3836ft 116kts
14-Feb-20 14:43 34.225586 -118.885920 265 3346ft 105kts
14-Feb-20 14:44 34.223941 -118.917772 263 3051ft 102kts
14-Feb-20 14:45 34.221797 -118.950660 263 2475ft 89kts
14-Feb-20 14:46 34.219964 -118.979352 262 1966ft 81kts
14-Feb-20 14:47 34.218023 -119.004183 262 1532ft 76kts
14-Feb-20 14:48 34.216501 -119.028623 261 1101ft 66kts
14-Feb-20 14:49 34.215107 -119.050450 260 717ft 63kts
14-Feb-20 14:50 34.213794 -119.071726 263 349ft 64kts
14-Feb-20 14:51 34.213530 -119.090045 234 70ft 25kts
14-Feb-20 14:52 34.212873 -119.090843 201 69ft 0kts
14-Feb-20 14:53 34.212691 -119.090932 203 69ft 8kts
14-Feb-20 14:54 34.210601 -119.088591 189 69ft 4kts
14-Feb-20 14:55 34.210185 -119.088830 253 69ft 0kts

Navigation Log

Ident Type
Flight plan parsing failed, navigation log unavailable